sensor_id;sensor_type;location;lat;lon;timestamp;pressure;altitude;pressure_sealevel;temperature;humidity
32033;BME280;31720;52.638;9.216;2023-09-07T00:00:58;101954.47;;;18.92;100.00
32033;BME280;31720;52.638;9.216;2023-09-07T00:04:01;101955.56;;;18.90;100.00
32033;BME280;31720;52.638;9.216;2023-09-07T00:07:03;101951.38;;;18.86;100.00
32033;BME280;31720;52.638;9.216;2023-09-07T00:10:05;101946.59;;;18.78;100.00
32033;BME280;31720;52.638;9.216;2023-09-07T00:13:08;101952.97;;;18.75;100.00
32033;BME280;31720;52.638;9.216;2023-09-07T00:16:10;101946.16;;;18.71;100.00
32033;BME280;31720;52.638;9.216;2023-09-07T00:19:11;101952.22;;;18.73;100.00
32033;BME280;31720;52.638;9.216;2023-09-07T00:22:13;101949.88;;;18.69;100.00
32033;BME280;31720;52.638;9.216;2023-09-07T00:25:14;101952.81;;;18.64;100.00
32033;BME280;31720;52.638;9.216;2023-09-07T00:28:17;101951.53;;;18.57;100.00
32033;BME280;31720;52.638;9.216;2023-09-07T00:31:19;101948.97;;;18.56;100.00
32033;BME280;31720;52.638;9.216;2023-09-07T00:34:20;101942.25;;;18.50;100.00
32033;BME280;31720;52.638;9.216;2023-09-07T00:37:21;101944.28;;;18.46;100.00
32033;BME280;31720;52.638;9.216;2023-09-07T00:40:23;101939.78;;;18.47;100.00
32033;BME280;31720;52.638;9.216;2023-09-07T00:43:27;101940.88;;;18.44;100.00
32033;BME280;31720;52.638;9.216;2023-09-07T00:46:29;101945.00;;;18.48;100.00
32033;BME280;31720;52.638;9.216;2023-09-07T00:49:30;101936.78;;;18.39;100.00
32033;BME280;31720;52.638;9.216;2023-09-07T00:52:32;101940.28;;;18.39;100.00
32033;BME280;31720;52.638;9.216;2023-09-07T00:55:35;101952.34;;;18.32;100.00
32033;BME280;31720;52.638;9.216;2023-09-07T00:58:38;101936.00;;;18.24;100.00
32033;BME280;31720;52.638;9.216;2023-09-07T01:01:40;101939.84;;;18.20;100.00
32033;BME280;31720;52.638;9.216;2023-09-07T01:04:42;101941.75;;;18.18;100.00
32033;BME280;31720;52.638;9.216;2023-09-07T01:07:47;101934.81;;;18.15;100.00
32033;BME280;31720;52.638;9.216;2023-09-07T01:10:53;101939.94;;;18.18;100.00
32033;BME280;31720;52.638;9.216;2023-09-07T01:13:56;101943.75;;;18.14;100.00
32033;BME280;31720;52.638;9.216;2023-09-07T01:16:58;101932.06;;;18.17;100.00
32033;BME280;31720;52.638;9.216;2023-09-07T01:20:03;101927.50;;;18.19;100.00
32033;BME280;31720;52.638;9.216;2023-09-07T01:23:11;101931.19;;;18.04;100.00
32033;BME280;31720;52.638;9.216;2023-09-07T01:26:13;101928.47;;;17.91;100.00
32033;BME280;31720;52.638;9.216;2023-09-07T01:29:15;101927.50;;;17.92;100.00
32033;BME280;31720;52.638;9.216;2023-09-07T01:32:17;101932.38;;;17.85;100.00
32033;BME280;31720;52.638;9.216;2023-09-07T01:35:19;101937.69;;;17.85;100.00
32033;BME280;31720;52.638;9.216;2023-09-07T01:38:23;101941.59;;;17.80;100.00
32033;BME280;31720;52.638;9.216;2023-09-07T01:41:24;101931.06;;;17.78;100.00
32033;BME280;31720;52.638;9.216;2023-09-07T01:44:26;101940.53;;;17.82;100.00
32033;BME280;31720;52.638;9.216;2023-09-07T01:47:27;101930.66;;;17.70;100.00
32033;BME280;31720;52.638;9.216;2023-09-07T01:50:29;101932.78;;;17.65;100.00
32033;BME280;31720;52.638;9.216;2023-09-07T01:53:31;101938.28;;;17.62;100.00
32033;BME280;31720;52.638;9.216;2023-09-07T01:56:33;101947.31;;;17.59;100.00
32033;BME280;31720;52.638;9.216;2023-09-07T01:59:34;101935.91;;;17.57;100.00
32033;BME280;31720;52.638;9.216;2023-09-07T02:02:36;101936.88;;;17.56;100.00
32033;BME280;31720;52.638;9.216;2023-09-07T02:05:39;101936.97;;;17.55;100.00
32033;BME280;31720;52.638;9.216;2023-09-07T02:08:42;101937.34;;;17.48;100.00
32033;BME280;31720;52.638;9.216;2023-09-07T02:11:43;101943.63;;;17.47;100.00
32033;BME280;31720;52.638;9.216;2023-09-07T02:14:45;101929.03;;;17.40;100.00
32033;BME280;31720;52.638;9.216;2023-09-07T02:17:46;101931.97;;;17.36;100.00
32033;BME280;31720;52.638;9.216;2023-09-07T02:20:47;101934.63;;;17.36;100.00
32033;BME280;31720;52.638;9.216;2023-09-07T02:23:50;101934.81;;;17.33;100.00
32033;BME280;31720;52.638;9.216;2023-09-07T02:26:52;101936.91;;;17.28;100.00
32033;BME280;31720;52.638;9.216;2023-09-07T02:29:53;101930.94;;;17.24;100.00
32033;BME280;31720;52.638;9.216;2023-09-07T02:32:54;101942.63;;;17.21;100.00
32033;BME280;31720;52.638;9.216;2023-09-07T02:35:57;101934.16;;;17.15;100.00
32033;BME280;31720;52.638;9.216;2023-09-07T02:38:59;101940.31;;;17.15;100.00
32033;BME280;31720;52.638;9.216;2023-09-07T02:42:01;101939.00;;;17.08;100.00
32033;BME280;31720;52.638;9.216;2023-09-07T02:45:04;101940.78;;;17.08;100.00
32033;BME280;31720;52.638;9.216;2023-09-07T02:48:06;101938.63;;;17.00;100.00
32033;BME280;31720;52.638;9.216;2023-09-07T02:51:07;101937.84;;;16.98;100.00
32033;BME280;31720;52.638;9.216;2023-09-07T02:54:10;101944.22;;;16.95;100.00
32033;BME280;31720;52.638;9.216;2023-09-07T02:57:11;101947.16;;;16.91;100.00
32033;BME280;31720;52.638;9.216;2023-09-07T03:00:14;101949.03;;;16.89;100.00
32033;BME280;31720;52.638;9.216;2023-09-07T03:03:17;101948.94;;;16.90;100.00
32033;BME280;31720;52.638;9.216;2023-09-07T03:06:18;101949.13;;;16.87;100.00
32033;BME280;31720;52.638;9.216;2023-09-07T03:09:21;101947.13;;;16.77;100.00
32033;BME280;31720;52.638;9.216;2023-09-07T03:12:23;101942.94;;;16.72;100.00
32033;BME280;31720;52.638;9.216;2023-09-07T03:15:24;101936.81;;;16.70;100.00
32033;BME280;31720;52.638;9.216;2023-09-07T03:18:26;101937.78;;;16.69;100.00
32033;BME280;31720;52.638;9.216;2023-09-07T03:21:27;101933.44;;;16.68;100.00
32033;BME280;31720;52.638;9.216;2023-09-07T03:24:31;101941.66;;;16.64;100.00
32033;BME280;31720;52.638;9.216;2023-09-07T03:27:32;101939.19;;;16.61;100.00
32033;BME280;31720;52.638;9.216;2023-09-07T03:30:34;101936.69;;;16.58;100.00
32033;BME280;31720;52.638;9.216;2023-09-07T03:33:35;101936.91;;;16.55;100.00
32033;BME280;31720;52.638;9.216;2023-09-07T03:36:37;101943.34;;;16.51;100.00
32033;BME280;31720;52.638;9.216;2023-09-07T03:39:39;101947.00;;;16.48;100.00
32033;BME280;31720;52.638;9.216;2023-09-07T03:42:41;101941.06;;;16.44;100.00
32033;BME280;31720;52.638;9.216;2023-09-07T03:45:43;101941.63;;;16.49;100.00
32033;BME280;31720;52.638;9.216;2023-09-07T03:48:45;101942.66;;;16.47;100.00
32033;BME280;31720;52.638;9.216;2023-09-07T03:51:46;101945.75;;;16.39;100.00
32033;BME280;31720;52.638;9.216;2023-09-07T03:54:49;101945.56;;;16.42;100.00
32033;BME280;31720;52.638;9.216;2023-09-07T03:57:50;101939.59;;;16.39;100.00
32033;BME280;31720;52.638;9.216;2023-09-07T04:00:51;101942.63;;;16.33;100.00
32033;BME280;31720;52.638;9.216;2023-09-07T04:03:53;101947.16;;;16.31;100.00
32033;BME280;31720;52.638;9.216;2023-09-07T04:06:54;101950.09;;;16.26;100.00
32033;BME280;31720;52.638;9.216;2023-09-07T04:09:57;101952.06;;;16.22;100.00
32033;BME280;31720;52.638;9.216;2023-09-07T04:12:58;101949.41;;;16.22;100.00
32033;BME280;31720;52.638;9.216;2023-09-07T04:16:00;101960.09;;;16.21;100.00
32033;BME280;31720;52.638;9.216;2023-09-07T04:19:01;101952.38;;;16.16;100.00
32033;BME280;31720;52.638;9.216;2023-09-07T04:22:03;101959.59;;;16.14;100.00
32033;BME280;31720;52.638;9.216;2023-09-07T04:25:07;101968.56;;;16.12;100.00
32033;BME280;31720;52.638;9.216;2023-09-07T04:28:08;101962.66;;;16.07;100.00
32033;BME280;31720;52.638;9.216;2023-09-07T04:31:10;101955.50;;;16.09;100.00
32033;BME280;31720;52.638;9.216;2023-09-07T04:34:11;101962.59;;;16.08;100.00
32033;BME280;31720;52.638;9.216;2023-09-07T04:37:13;101961.81;;;16.06;100.00
32033;BME280;31720;52.638;9.216;2023-09-07T04:40:15;101962.88;;;16.04;100.00
32033;BME280;31720;52.638;9.216;2023-09-07T04:43:17;101962.94;;;16.02;100.00
32033;BME280;31720;52.638;9.216;2023-09-07T04:46:21;101967.38;;;16.02;100.00
32033;BME280;31720;52.638;9.216;2023-09-07T04:49:23;101967.66;;;15.97;100.00
32033;BME280;31720;52.638;9.216;2023-09-07T04:52:26;101964.91;;;15.98;100.00
32033;BME280;31720;52.638;9.216;2023-09-07T04:55:29;101965.69;;;16.01;100.00
32033;BME280;31720;52.638;9.216;2023-09-07T04:58:30;101961.34;;;16.00;100.00
32033;BME280;31720;52.638;9.216;2023-09-07T05:01:32;101967.75;;;15.95;100.00
32033;BME280;31720;52.638;9.216;2023-09-07T05:04:33;101972.34;;;15.92;100.00
32033;BME280;31720;52.638;9.216;2023-09-07T05:07:35;101968.94;;;15.90;100.00
32033;BME280;31720;52.638;9.216;2023-09-07T05:10:38;101966.97;;;15.93;100.00
32033;BME280;31720;52.638;9.216;2023-09-07T05:13:39;101973.31;;;15.91;100.00
32033;BME280;31720;52.638;9.216;2023-09-07T05:16:42;101974.00;;;15.94;100.00
32033;BME280;31720;52.638;9.216;2023-09-07T05:19:43;101972.34;;;15.92;100.00
32033;BME280;31720;52.638;9.216;2023-09-07T05:22:45;101974.91;;;15.93;100.00
32033;BME280;31720;52.638;9.216;2023-09-07T05:25:49;101975.50;;;15.98;100.00
32033;BME280;31720;52.638;9.216;2023-09-07T05:28:52;101977.03;;;16.03;100.00
32033;BME280;31720;52.638;9.216;2023-09-07T05:31:53;101976.03;;;16.05;100.00
32033;BME280;31720;52.638;9.216;2023-09-07T05:34:55;101979.28;;;16.10;100.00
32033;BME280;31720;52.638;9.216;2023-09-07T05:37:56;101975.50;;;16.14;100.00
32033;BME280;31720;52.638;9.216;2023-09-07T05:40:59;101976.88;;;16.21;100.00
32033;BME280;31720;52.638;9.216;2023-09-07T05:44:00;101980.28;;;16.23;100.00
32033;BME280;31720;52.638;9.216;2023-09-07T05:47:02;101976.69;;;16.24;100.00
32033;BME280;31720;52.638;9.216;2023-09-07T05:50:05;101980.38;;;16.22;100.00
32033;BME280;31720;52.638;9.216;2023-09-07T05:53:06;101974.22;;;16.21;100.00
32033;BME280;31720;52.638;9.216;2023-09-07T05:56:09;101977.19;;;16.31;100.00
32033;BME280;31720;52.638;9.216;2023-09-07T05:59:10;101986.59;;;16.37;100.00
32033;BME280;31720;52.638;9.216;2023-09-07T06:02:12;101987.88;;;16.45;100.00
32033;BME280;31720;52.638;9.216;2023-09-07T06:05:13;101993.25;;;16.44;100.00
32033;BME280;31720;52.638;9.216;2023-09-07T06:08:15;101993.91;;;16.47;100.00
32033;BME280;31720;52.638;9.216;2023-09-07T06:11:17;102004.28;;;16.52;100.00
32033;BME280;31720;52.638;9.216;2023-09-07T06:14:19;101998.69;;;16.57;100.00
32033;BME280;31720;52.638;9.216;2023-09-07T06:17:20;102001.44;;;16.55;100.00
32033;BME280;31720;52.638;9.216;2023-09-07T06:20:22;102001.19;;;16.60;100.00
32033;BME280;31720;52.638;9.216;2023-09-07T06:23:23;102002.88;;;16.61;100.00
32033;BME280;31720;52.638;9.216;2023-09-07T06:26:26;102001.84;;;16.63;100.00
32033;BME280;31720;52.638;9.216;2023-09-07T06:29:27;101992.56;;;16.70;100.00
32033;BME280;31720;52.638;9.216;2023-09-07T06:32:28;101990.72;;;16.72;100.00
32033;BME280;31720;52.638;9.216;2023-09-07T06:35:30;101996.88;;;16.73;100.00
32033;BME280;31720;52.638;9.216;2023-09-07T06:38:31;101992.34;;;16.75;100.00
32033;BME280;31720;52.638;9.216;2023-09-07T06:41:34;101997.09;;;16.84;100.00
32033;BME280;31720;52.638;9.216;2023-09-07T06:44:36;101999.47;;;16.89;100.00
32033;BME280;31720;52.638;9.216;2023-09-07T06:47:37;101998.91;;;16.98;100.00
32033;BME280;31720;52.638;9.216;2023-09-07T06:50:38;101996.56;;;17.08;100.00
32033;BME280;31720;52.638;9.216;2023-09-07T06:53:40;101999.59;;;17.16;100.00
32033;BME280;31720;52.638;9.216;2023-09-07T06:56:43;102009.88;;;17.22;100.00
32033;BME280;31720;52.638;9.216;2023-09-07T06:59:44;102006.00;;;17.28;100.00
32033;BME280;31720;52.638;9.216;2023-09-07T07:02:46;102004.66;;;17.35;100.00
32033;BME280;31720;52.638;9.216;2023-09-07T07:05:47;102008.66;;;17.42;100.00
32033;BME280;31720;52.638;9.216;2023-09-07T07:08:48;102011.88;;;17.47;100.00
32033;BME280;31720;52.638;9.216;2023-09-07T07:11:51;102015.56;;;17.59;100.00
32033;BME280;31720;52.638;9.216;2023-09-07T07:14:52;102017.84;;;17.65;100.00
32033;BME280;31720;52.638;9.216;2023-09-07T07:17:55;102018.91;;;17.77;100.00
32033;BME280;31720;52.638;9.216;2023-09-07T07:20:56;102018.63;;;17.81;100.00
32033;BME280;31720;52.638;9.216;2023-09-07T07:23:58;102014.53;;;17.90;100.00
32033;BME280;31720;52.638;9.216;2023-09-07T07:27:00;102021.56;;;17.91;100.00
32033;BME280;31720;52.638;9.216;2023-09-07T07:30:04;102024.47;;;18.00;100.00
32033;BME280;31720;52.638;9.216;2023-09-07T07:33:06;102014.28;;;18.07;100.00
32033;BME280;31720;52.638;9.216;2023-09-07T07:36:08;102014.44;;;18.18;100.00
32033;BME280;31720;52.638;9.216;2023-09-07T07:39:10;102009.72;;;18.36;100.00
32033;BME280;31720;52.638;9.216;2023-09-07T07:42:12;102015.28;;;18.46;100.00
32033;BME280;31720;52.638;9.216;2023-09-07T07:45:14;102019.03;;;18.56;100.00
32033;BME280;31720;52.638;9.216;2023-09-07T07:48:19;102025.28;;;18.69;100.00
32033;BME280;31720;52.638;9.216;2023-09-07T07:51:21;102022.78;;;18.81;100.00
32033;BME280;31720;52.638;9.216;2023-09-07T07:54:22;102019.16;;;18.82;100.00
32033;BME280;31720;52.638;9.216;2023-09-07T07:57:26;102019.25;;;18.93;100.00
32033;BME280;31720;52.638;9.216;2023-09-07T08:00:27;102022.25;;;19.01;100.00
32033;BME280;31720;52.638;9.216;2023-09-07T08:03:29;102028.03;;;19.08;100.00
32033;BME280;31720;52.638;9.216;2023-09-07T08:06:30;102025.91;;;19.13;100.00
32033;BME280;31720;52.638;9.216;2023-09-07T08:09:31;102024.72;;;19.17;100.00
32033;BME280;31720;52.638;9.216;2023-09-07T08:12:34;102015.53;;;19.34;100.00
32033;BME280;31720;52.638;9.216;2023-09-07T08:15:35;102009.56;;;19.43;100.00
32033;BME280;31720;52.638;9.216;2023-09-07T08:18:37;102011.69;;;19.50;100.00
32033;BME280;31720;52.638;9.216;2023-09-07T08:21:40;102007.66;;;19.58;100.00
32033;BME280;31720;52.638;9.216;2023-09-07T08:24:42;102013.59;;;19.74;100.00
32033;BME280;31720;52.638;9.216;2023-09-07T08:27:45;102010.47;;;19.80;100.00
32033;BME280;31720;52.638;9.216;2023-09-07T08:30:49;102015.06;;;19.91;100.00
32033;BME280;31720;52.638;9.216;2023-09-07T08:33:53;102013.53;;;19.99;100.00
32033;BME280;31720;52.638;9.216;2023-09-07T08:36:55;102014.34;;;20.13;100.00
32033;BME280;31720;52.638;9.216;2023-09-07T08:39:59;102012.81;;;20.21;100.00
32033;BME280;31720;52.638;9.216;2023-09-07T08:43:04;102014.81;;;20.31;100.00
32033;BME280;31720;52.638;9.216;2023-09-07T08:46:13;102017.13;;;20.35;100.00
32033;BME280;31720;52.638;9.216;2023-09-07T08:49:15;102017.00;;;20.49;100.00
32033;BME280;31720;52.638;9.216;2023-09-07T08:52:19;102011.69;;;20.61;100.00
32033;BME280;31720;52.638;9.216;2023-09-07T08:55:22;102011.72;;;20.72;100.00
32033;BME280;31720;52.638;9.216;2023-09-07T08:58:25;102007.25;;;20.84;100.00
32033;BME280;31720;52.638;9.216;2023-09-07T09:01:27;102009.72;;;20.98;100.00
32033;BME280;31720;52.638;9.216;2023-09-07T09:04:29;102017.63;;;21.11;100.00
32033;BME280;31720;52.638;9.216;2023-09-07T09:07:31;102012.53;;;21.19;100.00
32033;BME280;31720;52.638;9.216;2023-09-07T09:10:32;102014.38;;;21.29;100.00
32033;BME280;31720;52.638;9.216;2023-09-07T09:13:35;102006.38;;;21.52;100.00
32033;BME280;31720;52.638;9.216;2023-09-07T09:16:36;102007.22;;;21.52;100.00
32033;BME280;31720;52.638;9.216;2023-09-07T09:19:38;102009.78;;;21.65;100.00
32033;BME280;31720;52.638;9.216;2023-09-07T09:22:39;102005.66;;;21.72;100.00
32033;BME280;31720;52.638;9.216;2023-09-07T09:25:41;102007.69;;;21.91;100.00
32033;BME280;31720;52.638;9.216;2023-09-07T09:28:44;102015.56;;;22.04;100.00
32033;BME280;31720;52.638;9.216;2023-09-07T09:31:46;102001.91;;;22.07;100.00
32033;BME280;31720;52.638;9.216;2023-09-07T09:34:48;102009.22;;;22.16;100.00
32033;BME280;31720;52.638;9.216;2023-09-07T09:37:49;102003.47;;;22.32;100.00
32033;BME280;31720;52.638;9.216;2023-09-07T09:40:51;102007.44;;;22.49;100.00
32033;BME280;31720;52.638;9.216;2023-09-07T09:43:55;102000.69;;;22.54;100.00
32033;BME280;31720;52.638;9.216;2023-09-07T09:46:57;101993.56;;;22.65;100.00
32033;BME280;31720;52.638;9.216;2023-09-07T09:50:00;101988.56;;;22.92;96.34
32033;BME280;31720;52.638;9.216;2023-09-07T09:53:05;101986.09;;;23.00;99.39
32033;BME280;31720;52.638;9.216;2023-09-07T09:56:08;101988.50;;;23.03;99.81
32033;BME280;31720;52.638;9.216;2023-09-07T09:59:11;101978.22;;;23.09;98.72
32033;BME280;31720;52.638;9.216;2023-09-07T10:02:12;101977.25;;;23.10;100.00
32033;BME280;31720;52.638;9.216;2023-09-07T10:05:14;101974.16;;;23.14;97.01
32033;BME280;31720;52.638;9.216;2023-09-07T10:08:18;101977.25;;;23.40;95.32
32033;BME280;31720;52.638;9.216;2023-09-07T10:11:33;101965.28;;;23.54;92.92
32033;BME280;31720;52.638;9.216;2023-09-07T10:14:39;101960.00;;;23.73;90.09
32033;BME280;31720;52.638;9.216;2023-09-07T10:17:41;101961.28;;;23.89;90.00
32033;BME280;31720;52.638;9.216;2023-09-07T10:20:48;101960.03;;;23.93;89.39
32033;BME280;31720;52.638;9.216;2023-09-07T10:23:51;101958.75;;;23.97;88.73
32033;BME280;31720;52.638;9.216;2023-09-07T10:26:56;101952.97;;;24.01;88.00
32033;BME280;31720;52.638;9.216;2023-09-07T10:29:59;101962.31;;;24.17;87.39
32033;BME280;31720;52.638;9.216;2023-09-07T10:33:00;101949.31;;;24.22;85.96
32033;BME280;31720;52.638;9.216;2023-09-07T10:36:03;101953.28;;;24.18;86.53
32033;BME280;31720;52.638;9.216;2023-09-07T10:39:05;101946.31;;;24.25;86.01
32033;BME280;31720;52.638;9.216;2023-09-07T10:42:07;101944.81;;;24.42;85.68
32033;BME280;31720;52.638;9.216;2023-09-07T10:45:12;101944.22;;;24.38;85.20
32033;BME280;31720;52.638;9.216;2023-09-07T10:48:16;101944.34;;;24.56;84.62
32033;BME280;31720;52.638;9.216;2023-09-07T10:51:18;101941.53;;;24.67;83.85
32033;BME280;31720;52.638;9.216;2023-09-07T10:54:22;101930.72;;;24.87;83.17
32033;BME280;31720;52.638;9.216;2023-09-07T10:57:24;101934.25;;;24.87;82.93
32033;BME280;31720;52.638;9.216;2023-09-07T11:00:28;101930.13;;;24.93;82.54
32033;BME280;31720;52.638;9.216;2023-09-07T11:03:30;101922.72;;;25.04;80.41
32033;BME280;31720;52.638;9.216;2023-09-07T11:06:31;101919.97;;;25.24;79.68
32033;BME280;31720;52.638;9.216;2023-09-07T11:09:33;101921.81;;;25.51;78.08
32033;BME280;31720;52.638;9.216;2023-09-07T11:12:38;101921.59;;;25.44;80.19
32033;BME280;31720;52.638;9.216;2023-09-07T11:15:42;101922.81;;;25.50;81.84
32033;BME280;31720;52.638;9.216;2023-09-07T11:18:45;101919.41;;;25.75;80.40
32033;BME280;31720;52.638;9.216;2023-09-07T11:21:46;101913.91;;;25.95;77.73
32033;BME280;31720;52.638;9.216;2023-09-07T11:24:47;101920.13;;;26.13;75.67
32033;BME280;31720;52.638;9.216;2023-09-07T11:27:51;101911.94;;;26.41;72.38
32033;BME280;31720;52.638;9.216;2023-09-07T11:30:56;101906.66;;;26.57;72.71
32033;BME280;31720;52.638;9.216;2023-09-07T11:33:59;101913.13;;;26.64;73.91
32033;BME280;31720;52.638;9.216;2023-09-07T11:37:02;101904.78;;;26.75;72.66
32033;BME280;31720;52.638;9.216;2023-09-07T11:40:05;101902.75;;;27.03;72.12
32033;BME280;31720;52.638;9.216;2023-09-07T11:43:11;101906.53;;;27.19;68.90
32033;BME280;31720;52.638;9.216;2023-09-07T11:46:14;101901.91;;;27.45;69.30
32033;BME280;31720;52.638;9.216;2023-09-07T11:49:16;101897.63;;;27.77;67.41
32033;BME280;31720;52.638;9.216;2023-09-07T11:52:20;101900.16;;;28.11;66.40
32033;BME280;31720;52.638;9.216;2023-09-07T11:55:21;101903.06;;;28.42;64.63
32033;BME280;31720;52.638;9.216;2023-09-07T11:58:23;101903.22;;;28.57;59.62
32033;BME280;31720;52.638;9.216;2023-09-07T12:01:26;101893.06;;;28.67;61.11
32033;BME280;31720;52.638;9.216;2023-09-07T12:04:28;101889.09;;;28.94;60.50
32033;BME280;31720;52.638;9.216;2023-09-07T12:07:29;101890.69;;;29.20;59.75
32033;BME280;31720;52.638;9.216;2023-09-07T12:10:31;101887.06;;;29.36;60.10
32033;BME280;31720;52.638;9.216;2023-09-07T12:13:32;101887.78;;;29.61;58.20
32033;BME280;31720;52.638;9.216;2023-09-07T12:16:35;101889.59;;;29.68;56.59
32033;BME280;31720;52.638;9.216;2023-09-07T12:19:36;101884.25;;;29.83;54.53
32033;BME280;31720;52.638;9.216;2023-09-07T12:22:37;101875.03;;;29.92;55.72
32033;BME280;31720;52.638;9.216;2023-09-07T12:25:39;101870.94;;;30.19;55.77
32033;BME280;31720;52.638;9.216;2023-09-07T12:28:40;101861.41;;;30.23;53.86
32033;BME280;31720;52.638;9.216;2023-09-07T12:31:43;101859.94;;;30.36;51.65
32033;BME280;31720;52.638;9.216;2023-09-07T12:34:45;101854.63;;;30.57;52.34
32033;BME280;31720;52.638;9.216;2023-09-07T12:37:47;101851.09;;;30.71;50.63
32033;BME280;31720;52.638;9.216;2023-09-07T12:40:48;101850.25;;;30.86;50.28
32033;BME280;31720;52.638;9.216;2023-09-07T12:43:49;101847.59;;;31.07;50.30
32033;BME280;31720;52.638;9.216;2023-09-07T12:46:53;101847.13;;;31.03;50.83
32033;BME280;31720;52.638;9.216;2023-09-07T12:49:55;101843.00;;;31.07;50.38
32033;BME280;31720;52.638;9.216;2023-09-07T12:52:57;101838.16;;;31.24;49.43
32033;BME280;31720;52.638;9.216;2023-09-07T12:55:58;101826.47;;;31.39;46.85
32033;BME280;31720;52.638;9.216;2023-09-07T12:59:01;101832.91;;;31.38;46.75
32033;BME280;31720;52.638;9.216;2023-09-07T13:02:05;101822.13;;;31.44;47.28
32033;BME280;31720;52.638;9.216;2023-09-07T13:05:07;101828.34;;;31.60;48.35
32033;BME280;31720;52.638;9.216;2023-09-07T13:08:08;101825.75;;;31.73;46.37
32033;BME280;31720;52.638;9.216;2023-09-07T13:11:10;101817.53;;;31.66;47.14
32033;BME280;31720;52.638;9.216;2023-09-07T13:14:11;101826.59;;;31.73;44.87
32033;BME280;31720;52.638;9.216;2023-09-07T13:17:14;101821.28;;;31.65;45.37
32033;BME280;31720;52.638;9.216;2023-09-07T13:20:15;101819.47;;;31.72;45.31
32033;BME280;31720;52.638;9.216;2023-09-07T13:23:17;101815.06;;;31.93;44.49
32033;BME280;31720;52.638;9.216;2023-09-07T13:26:19;101816.78;;;31.94;44.55
32033;BME280;31720;52.638;9.216;2023-09-07T13:29:21;101810.38;;;32.08;43.82
32033;BME280;31720;52.638;9.216;2023-09-07T13:32:23;101809.47;;;32.29;43.83
32033;BME280;31720;52.638;9.216;2023-09-07T13:35:25;101808.69;;;32.35;44.91
32033;BME280;31720;52.638;9.216;2023-09-07T13:38:27;101805.59;;;32.38;42.78
32033;BME280;31720;52.638;9.216;2023-09-07T13:41:28;101793.69;;;32.46;43.75
32033;BME280;31720;52.638;9.216;2023-09-07T13:44:29;101786.84;;;32.56;43.65
32033;BME280;31720;52.638;9.216;2023-09-07T13:47:32;101788.31;;;32.52;42.83
32033;BME280;31720;52.638;9.216;2023-09-07T13:50:33;101791.34;;;32.77;43.17
32033;BME280;31720;52.638;9.216;2023-09-07T13:53:35;101794.84;;;32.65;42.58
32033;BME280;31720;52.638;9.216;2023-09-07T13:56:36;101794.91;;;32.78;39.46
32033;BME280;31720;52.638;9.216;2023-09-07T13:59:38;101792.19;;;32.78;40.23
32033;BME280;31720;52.638;9.216;2023-09-07T14:02:41;101797.97;;;33.03;41.01
32033;BME280;31720;52.638;9.216;2023-09-07T14:05:42;101792.09;;;32.99;39.48
32033;BME280;31720;52.638;9.216;2023-09-07T14:08:44;101791.69;;;33.02;40.37
32033;BME280;31720;52.638;9.216;2023-09-07T14:11:46;101787.50;;;33.20;39.93
32033;BME280;31720;52.638;9.216;2023-09-07T14:14:48;101791.25;;;33.05;40.15
32033;BME280;31720;52.638;9.216;2023-09-07T14:17:51;101780.53;;;32.97;42.04
32033;BME280;31720;52.638;9.216;2023-09-07T14:20:53;101783.47;;;32.96;39.60
32033;BME280;31720;52.638;9.216;2023-09-07T14:23:57;101784.28;;;32.90;40.47
32033;BME280;31720;52.638;9.216;2023-09-07T14:27:00;101781.59;;;32.96;39.55
32033;BME280;31720;52.638;9.216;2023-09-07T14:30:01;101779.53;;;33.05;39.44
32033;BME280;31720;52.638;9.216;2023-09-07T14:33:04;101777.19;;;32.95;41.01
32033;BME280;31720;52.638;9.216;2023-09-07T14:36:07;101782.47;;;33.03;40.72
32033;BME280;31720;52.638;9.216;2023-09-07T14:39:08;101776.84;;;33.12;41.60
32033;BME280;31720;52.638;9.216;2023-09-07T14:42:10;101786.97;;;32.83;40.52
32033;BME280;31720;52.638;9.216;2023-09-07T14:45:14;101775.78;;;32.65;39.97
32033;BME280;31720;52.638;9.216;2023-09-07T14:48:17;101777.25;;;32.26;42.98
32033;BME280;31720;52.638;9.216;2023-09-07T14:51:18;101766.41;;;32.04;42.02
32033;BME280;31720;52.638;9.216;2023-09-07T14:54:20;101767.88;;;31.79;42.99
32033;BME280;31720;52.638;9.216;2023-09-07T14:57:21;101775.53;;;31.47;43.39
32033;BME280;31720;52.638;9.216;2023-09-07T15:00:23;101767.94;;;31.21;44.01
32033;BME280;31720;52.638;9.216;2023-09-07T15:03:28;101762.72;;;30.83;46.31
32033;BME280;31720;52.638;9.216;2023-09-07T15:06:29;101766.56;;;30.60;44.92
32033;BME280;31720;52.638;9.216;2023-09-07T15:09:33;101768.72;;;30.49;45.36
32033;BME280;31720;52.638;9.216;2023-09-07T15:12:34;101768.22;;;30.61;44.49
32033;BME280;31720;52.638;9.216;2023-09-07T15:15:36;101765.72;;;30.74;44.99
32033;BME280;31720;52.638;9.216;2023-09-07T15:18:41;101765.72;;;31.10;43.66
32033;BME280;31720;52.638;9.216;2023-09-07T15:21:42;101767.03;;;31.14;43.55
32033;BME280;31720;52.638;9.216;2023-09-07T15:24:43;101774.84;;;31.24;43.96
32033;BME280;31720;52.638;9.216;2023-09-07T15:27:45;101765.56;;;31.33;43.37
32033;BME280;31720;52.638;9.216;2023-09-07T15:30:46;101756.16;;;31.14;42.88
32033;BME280;31720;52.638;9.216;2023-09-07T15:33:49;101759.72;;;30.93;42.69
32033;BME280;31720;52.638;9.216;2023-09-07T15:36:51;101751.78;;;30.77;44.49
32033;BME280;31720;52.638;9.216;2023-09-07T15:39:52;101756.38;;;30.62;44.42
32033;BME280;31720;52.638;9.216;2023-09-07T15:42:54;101750.88;;;30.40;45.73